sensor_id;sensor_type;location;lat;lon;timestamp;temperature;humidity
24814;DHT22;12904;50.088;11.414;2023-08-17T00:01:24;19.20;99.90
24814;DHT22;12904;50.088;11.414;2023-08-17T00:03:50;19.20;99.90
24814;DHT22;12904;50.088;11.414;2023-08-17T00:06:15;19.10;99.90
24814;DHT22;12904;50.088;11.414;2023-08-17T00:08:42;19.10;99.90
24814;DHT22;12904;50.088;11.414;2023-08-17T00:11:07;19.10;99.90
24814;DHT22;12904;50.088;11.414;2023-08-17T00:13:33;19.20;99.90
24814;DHT22;12904;50.088;11.414;2023-08-17T00:15:58;19.20;99.90
24814;DHT22;12904;50.088;11.414;2023-08-17T00:18:24;19.30;99.90
24814;DHT22;12904;50.088;11.414;2023-08-17T00:20:50;19.30;99.90
24814;DHT22;12904;50.088;11.414;2023-08-17T00:23:15;19.40;99.90
24814;DHT22;12904;50.088;11.414;2023-08-17T00:25:41;19.50;99.90
24814;DHT22;12904;50.088;11.414;2023-08-17T00:28:06;19.50;99.90
24814;DHT22;12904;50.088;11.414;2023-08-17T00:30:33;19.50;99.90
24814;DHT22;12904;50.088;11.414;2023-08-17T00:33:02;19.50;99.90
24814;DHT22;12904;50.088;11.414;2023-08-17T00:35:27;19.60;99.90
24814;DHT22;12904;50.088;11.414;2023-08-17T00:37:53;19.60;99.90
24814;DHT22;12904;50.088;11.414;2023-08-17T00:40:19;19.70;99.90
24814;DHT22;12904;50.088;11.414;2023-08-17T00:42:45;19.70;99.90
24814;DHT22;12904;50.088;11.414;2023-08-17T00:45:10;19.70;99.90
24814;DHT22;12904;50.088;11.414;2023-08-17T00:47:36;19.70;99.90
24814;DHT22;12904;50.088;11.414;2023-08-17T00:50:03;19.80;99.90
24814;DHT22;12904;50.088;11.414;2023-08-17T00:52:30;19.80;99.90
24814;DHT22;12904;50.088;11.414;2023-08-17T00:54:58;19.80;99.90
24814;DHT22;12904;50.088;11.414;2023-08-17T00:57:24;19.70;99.90
24814;DHT22;12904;50.088;11.414;2023-08-17T00:59:50;19.70;99.90
24814;DHT22;12904;50.088;11.414;2023-08-17T01:02:17;19.70;99.90
24814;DHT22;12904;50.088;11.414;2023-08-17T01:04:43;19.60;99.90
24814;DHT22;12904;50.088;11.414;2023-08-17T01:07:08;19.60;99.90
24814;DHT22;12904;50.088;11.414;2023-08-17T01:09:34;19.60;99.90
24814;DHT22;12904;50.088;11.414;2023-08-17T01:12:36;19.50;99.90
24814;DHT22;12904;50.088;11.414;2023-08-17T01:15:16;19.50;99.90
24814;DHT22;12904;50.088;11.414;2023-08-17T01:17:48;19.40;99.90
24814;DHT22;12904;50.088;11.414;2023-08-17T01:20:17;19.40;99.90
24814;DHT22;12904;50.088;11.414;2023-08-17T01:22:46;19.30;99.90
24814;DHT22;12904;50.088;11.414;2023-08-17T01:25:13;19.30;99.90
24814;DHT22;12904;50.088;11.414;2023-08-17T01:27:41;19.30;99.90
24814;DHT22;12904;50.088;11.414;2023-08-17T01:30:08;19.30;99.90
24814;DHT22;12904;50.088;11.414;2023-08-17T01:33:03;19.20;99.90
24814;DHT22;12904;50.088;11.414;2023-08-17T01:35:39;19.20;99.90
24814;DHT22;12904;50.088;11.414;2023-08-17T01:38:11;19.20;99.90
24814;DHT22;12904;50.088;11.414;2023-08-17T01:40:37;19.30;99.90
24814;DHT22;12904;50.088;11.414;2023-08-17T01:43:03;19.30;99.90
24814;DHT22;12904;50.088;11.414;2023-08-17T01:45:29;19.30;99.90
24814;DHT22;12904;50.088;11.414;2023-08-17T01:47:55;19.40;99.90
24814;DHT22;12904;50.088;11.414;2023-08-17T01:50:21;19.50;99.90
24814;DHT22;12904;50.088;11.414;2023-08-17T01:52:47;19.50;99.90
24814;DHT22;12904;50.088;11.414;2023-08-17T01:55:12;19.50;99.90
24814;DHT22;12904;50.088;11.414;2023-08-17T01:57:38;19.60;99.90
24814;DHT22;12904;50.088;11.414;2023-08-17T02:00:04;19.60;99.90
24814;DHT22;12904;50.088;11.414;2023-08-17T02:02:31;19.60;99.90
24814;DHT22;12904;50.088;11.414;2023-08-17T02:04:56;19.60;99.90
24814;DHT22;12904;50.088;11.414;2023-08-17T02:07:22;19.60;99.90
24814;DHT22;12904;50.088;11.414;2023-08-17T02:09:48;19.60;99.90
24814;DHT22;12904;50.088;11.414;2023-08-17T02:12:13;19.50;99.90
24814;DHT22;12904;50.088;11.414;2023-08-17T02:14:39;19.50;99.90
24814;DHT22;12904;50.088;11.414;2023-08-17T02:17:05;19.50;99.90
24814;DHT22;12904;50.088;11.414;2023-08-17T02:19:31;19.40;99.90
24814;DHT22;12904;50.088;11.414;2023-08-17T02:21:58;19.40;99.90
24814;DHT22;12904;50.088;11.414;2023-08-17T02:24:24;19.40;99.90
24814;DHT22;12904;50.088;11.414;2023-08-17T02:26:50;19.30;99.90
24814;DHT22;12904;50.088;11.414;2023-08-17T02:29:16;19.30;99.90
24814;DHT22;12904;50.088;11.414;2023-08-17T02:31:41;19.30;99.90
24814;DHT22;12904;50.088;11.414;2023-08-17T02:34:07;19.20;99.90
24814;DHT22;12904;50.088;11.414;2023-08-17T02:36:33;19.20;99.90
24814;DHT22;12904;50.088;11.414;2023-08-17T02:38:59;19.20;99.90
24814;DHT22;12904;50.088;11.414;2023-08-17T02:41:24;19.10;99.90
24814;DHT22;12904;50.088;11.414;2023-08-17T02:43:50;19.10;99.90
24814;DHT22;12904;50.088;11.414;2023-08-17T02:46:15;19.10;99.90
24814;DHT22;12904;50.088;11.414;2023-08-17T02:48:41;19.00;99.90
24814;DHT22;12904;50.088;11.414;2023-08-17T02:51:07;18.90;99.90
24814;DHT22;12904;50.088;11.414;2023-08-17T02:53:32;18.90;99.90
24814;DHT22;12904;50.088;11.414;2023-08-17T02:55:58;18.90;99.90
24814;DHT22;12904;50.088;11.414;2023-08-17T02:58:24;18.80;99.90
24814;DHT22;12904;50.088;11.414;2023-08-17T03:00:52;18.70;99.90
24814;DHT22;12904;50.088;11.414;2023-08-17T03:03:19;18.70;99.90
24814;DHT22;12904;50.088;11.414;2023-08-17T03:05:45;18.60;99.90
24814;DHT22;12904;50.088;11.414;2023-08-17T03:08:10;18.60;99.90
24814;DHT22;12904;50.088;11.414;2023-08-17T03:10:37;18.60;99.90
24814;DHT22;12904;50.088;11.414;2023-08-17T03:13:03;18.60;99.90
24814;DHT22;12904;50.088;11.414;2023-08-17T03:15:28;18.60;99.90
24814;DHT22;12904;50.088;11.414;2023-08-17T03:17:54;18.50;99.90
24814;DHT22;12904;50.088;11.414;2023-08-17T03:20:19;18.50;99.90
24814;DHT22;12904;50.088;11.414;2023-08-17T03:22:45;18.40;99.90
24814;DHT22;12904;50.088;11.414;2023-08-17T03:25:11;18.40;99.90
24814;DHT22;12904;50.088;11.414;2023-08-17T03:27:36;18.30;99.90
24814;DHT22;12904;50.088;11.414;2023-08-17T03:30:03;18.20;99.90
24814;DHT22;12904;50.088;11.414;2023-08-17T03:32:29;18.10;99.90
24814;DHT22;12904;50.088;11.414;2023-08-17T03:34:54;18.10;99.90
24814;DHT22;12904;50.088;11.414;2023-08-17T03:37:20;18.10;99.90
24814;DHT22;12904;50.088;11.414;2023-08-17T03:39:46;18.10;99.90
24814;DHT22;12904;50.088;11.414;2023-08-17T03:42:11;18.20;99.90
24814;DHT22;12904;50.088;11.414;2023-08-17T03:44:37;18.20;99.90
24814;DHT22;12904;50.088;11.414;2023-08-17T03:47:02;18.20;99.90
24814;DHT22;12904;50.088;11.414;2023-08-17T03:49:28;18.20;99.90
24814;DHT22;12904;50.088;11.414;2023-08-17T03:51:53;18.30;99.90
24814;DHT22;12904;50.088;11.414;2023-08-17T03:54:19;18.30;99.90
24814;DHT22;12904;50.088;11.414;2023-08-17T03:56:45;18.30;99.90
24814;DHT22;12904;50.088;11.414;2023-08-17T03:59:10;18.30;99.90
24814;DHT22;12904;50.088;11.414;2023-08-17T04:01:36;18.40;99.90
24814;DHT22;12904;50.088;11.414;2023-08-17T04:04:02;18.30;99.90
24814;DHT22;12904;50.088;11.414;2023-08-17T04:06:27;18.30;99.90
24814;DHT22;12904;50.088;11.414;2023-08-17T04:08:53;18.40;99.90
24814;DHT22;12904;50.088;11.414;2023-08-17T04:11:18;18.30;99.90
24814;DHT22;12904;50.088;11.414;2023-08-17T04:13:44;18.40;99.90
24814;DHT22;12904;50.088;11.414;2023-08-17T04:16:10;18.40;99.90
24814;DHT22;12904;50.088;11.414;2023-08-17T04:18:35;18.40;99.90
24814;DHT22;12904;50.088;11.414;2023-08-17T04:21:01;18.30;99.90
24814;DHT22;12904;50.088;11.414;2023-08-17T04:23:27;18.30;99.90
24814;DHT22;12904;50.088;11.414;2023-08-17T04:25:53;18.30;99.90
24814;DHT22;12904;50.088;11.414;2023-08-17T04:28:20;18.40;99.90
24814;DHT22;12904;50.088;11.414;2023-08-17T04:30:46;18.30;99.90
24814;DHT22;12904;50.088;11.414;2023-08-17T04:33:11;18.40;99.90
24814;DHT22;12904;50.088;11.414;2023-08-17T04:35:38;18.40;99.90
24814;DHT22;12904;50.088;11.414;2023-08-17T04:38:04;18.50;99.90
24814;DHT22;12904;50.088;11.414;2023-08-17T04:40:30;18.50;99.90
24814;DHT22;12904;50.088;11.414;2023-08-17T04:42:56;18.50;99.90
24814;DHT22;12904;50.088;11.414;2023-08-17T04:45:22;18.50;99.90
24814;DHT22;12904;50.088;11.414;2023-08-17T04:47:48;18.50;99.90
24814;DHT22;12904;50.088;11.414;2023-08-17T04:50:15;18.50;99.90
24814;DHT22;12904;50.088;11.414;2023-08-17T04:52:44;18.50;99.90
24814;DHT22;12904;50.088;11.414;2023-08-17T04:55:11;18.50;99.90
24814;DHT22;12904;50.088;11.414;2023-08-17T04:57:37;18.50;99.90
24814;DHT22;12904;50.088;11.414;2023-08-17T05:00:03;18.50;99.90
24814;DHT22;12904;50.088;11.414;2023-08-17T05:02:29;18.50;99.90
24814;DHT22;12904;50.088;11.414;2023-08-17T05:04:54;18.60;99.90
24814;DHT22;12904;50.088;11.414;2023-08-17T05:07:20;18.60;99.90
24814;DHT22;12904;50.088;11.414;2023-08-17T05:09:45;18.70;99.90
24814;DHT22;12904;50.088;11.414;2023-08-17T05:12:11;18.80;99.90
24814;DHT22;12904;50.088;11.414;2023-08-17T05:14:37;18.80;99.90
24814;DHT22;12904;50.088;11.414;2023-08-17T05:17:02;18.90;99.90
24814;DHT22;12904;50.088;11.414;2023-08-17T05:19:28;19.00;99.90
24814;DHT22;12904;50.088;11.414;2023-08-17T05:21:54;19.10;99.90
24814;DHT22;12904;50.088;11.414;2023-08-17T05:24:19;19.20;99.90
24814;DHT22;12904;50.088;11.414;2023-08-17T05:26:46;19.30;99.90
24814;DHT22;12904;50.088;11.414;2023-08-17T05:29:11;19.40;99.90
24814;DHT22;12904;50.088;11.414;2023-08-17T05:31:37;19.50;99.90
24814;DHT22;12904;50.088;11.414;2023-08-17T05:34:03;19.60;99.90
24814;DHT22;12904;50.088;11.414;2023-08-17T05:36:29;19.60;99.90
24814;DHT22;12904;50.088;11.414;2023-08-17T05:38:54;19.70;99.90
24814;DHT22;12904;50.088;11.414;2023-08-17T05:41:20;19.70;99.90
24814;DHT22;12904;50.088;11.414;2023-08-17T05:43:45;19.80;99.90
24814;DHT22;12904;50.088;11.414;2023-08-17T05:46:11;19.80;99.90
24814;DHT22;12904;50.088;11.414;2023-08-17T05:48:37;19.90;99.90
24814;DHT22;12904;50.088;11.414;2023-08-17T05:51:02;20.00;99.90
24814;DHT22;12904;50.088;11.414;2023-08-17T05:53:28;20.00;99.90
24814;DHT22;12904;50.088;11.414;2023-08-17T05:55:54;20.10;99.90
24814;DHT22;12904;50.088;11.414;2023-08-17T05:58:19;20.10;99.90
24814;DHT22;12904;50.088;11.414;2023-08-17T06:00:45;20.10;99.90
24814;DHT22;12904;50.088;11.414;2023-08-17T06:03:11;20.10;99.90
24814;DHT22;12904;50.088;11.414;2023-08-17T06:05:37;20.10;99.90
24814;DHT22;12904;50.088;11.414;2023-08-17T06:08:02;20.10;99.90
24814;DHT22;12904;50.088;11.414;2023-08-17T06:10:28;20.10;99.90
24814;DHT22;12904;50.088;11.414;2023-08-17T06:12:55;20.10;99.90
24814;DHT22;12904;50.088;11.414;2023-08-17T06:15:21;20.10;99.90
24814;DHT22;12904;50.088;11.414;2023-08-17T06:17:47;20.10;99.90
24814;DHT22;12904;50.088;11.414;2023-08-17T06:20:16;20.10;99.90
24814;DHT22;12904;50.088;11.414;2023-08-17T06:22:41;20.20;99.90
24814;DHT22;12904;50.088;11.414;2023-08-17T06:25:08;20.30;99.90
24814;DHT22;12904;50.088;11.414;2023-08-17T06:27:34;20.40;99.90
24814;DHT22;12904;50.088;11.414;2023-08-17T06:30:01;20.40;99.90
24814;DHT22;12904;50.088;11.414;2023-08-17T06:32:28;20.60;99.90
24814;DHT22;12904;50.088;11.414;2023-08-17T06:34:54;20.70;99.90
24814;DHT22;12904;50.088;11.414;2023-08-17T06:37:19;20.80;99.90
24814;DHT22;12904;50.088;11.414;2023-08-17T06:39:45;20.80;99.90
24814;DHT22;12904;50.088;11.414;2023-08-17T06:42:11;20.90;99.90
24814;DHT22;12904;50.088;11.414;2023-08-17T06:44:37;20.90;99.90
24814;DHT22;12904;50.088;11.414;2023-08-17T06:47:03;21.00;99.90
24814;DHT22;12904;50.088;11.414;2023-08-17T06:49:29;21.10;99.90
24814;DHT22;12904;50.088;11.414;2023-08-17T06:51:55;21.10;99.90
24814;DHT22;12904;50.088;11.414;2023-08-17T06:54:21;21.20;99.90
24814;DHT22;12904;50.088;11.414;2023-08-17T06:56:46;21.20;99.90
24814;DHT22;12904;50.088;11.414;2023-08-17T06:59:12;21.20;99.90
24814;DHT22;12904;50.088;11.414;2023-08-17T07:01:38;21.30;99.90
24814;DHT22;12904;50.088;11.414;2023-08-17T07:04:04;21.40;99.90
24814;DHT22;12904;50.088;11.414;2023-08-17T07:06:29;21.40;99.90
24814;DHT22;12904;50.088;11.414;2023-08-17T07:08:55;21.50;99.90
24814;DHT22;12904;50.088;11.414;2023-08-17T07:11:21;21.60;99.90
24814;DHT22;12904;50.088;11.414;2023-08-17T07:13:47;21.60;99.90
24814;DHT22;12904;50.088;11.414;2023-08-17T07:16:13;21.70;99.90
24814;DHT22;12904;50.088;11.414;2023-08-17T07:18:39;21.70;99.90
24814;DHT22;12904;50.088;11.414;2023-08-17T07:21:05;21.70;99.90
24814;DHT22;12904;50.088;11.414;2023-08-17T07:23:31;21.80;99.90
24814;DHT22;12904;50.088;11.414;2023-08-17T07:25:56;21.90;99.90
24814;DHT22;12904;50.088;11.414;2023-08-17T07:28:22;22.10;99.90
24814;DHT22;12904;50.088;11.414;2023-08-17T07:30:48;22.20;99.90
24814;DHT22;12904;50.088;11.414;2023-08-17T07:33:13;22.20;99.90
24814;DHT22;12904;50.088;11.414;2023-08-17T07:35:39;22.30;99.90
24814;DHT22;12904;50.088;11.414;2023-08-17T07:38:04;22.30;99.90
24814;DHT22;12904;50.088;11.414;2023-08-17T07:40:30;22.50;99.90
24814;DHT22;12904;50.088;11.414;2023-08-17T07:42:56;22.60;99.90
24814;DHT22;12904;50.088;11.414;2023-08-17T07:45:22;22.70;99.90
24814;DHT22;12904;50.088;11.414;2023-08-17T07:47:47;22.80;99.90
24814;DHT22;12904;50.088;11.414;2023-08-17T07:50:13;22.90;99.90
24814;DHT22;12904;50.088;11.414;2023-08-17T07:52:39;23.00;99.90
24814;DHT22;12904;50.088;11.414;2023-08-17T07:55:05;23.20;99.90
24814;DHT22;12904;50.088;11.414;2023-08-17T07:57:30;23.40;99.90
24814;DHT22;12904;50.088;11.414;2023-08-17T07:59:56;23.50;99.90
24814;DHT22;12904;50.088;11.414;2023-08-17T08:02:22;23.60;99.90
24814;DHT22;12904;50.088;11.414;2023-08-17T08:04:47;23.70;99.90
24814;DHT22;12904;50.088;11.414;2023-08-17T08:07:13;23.80;99.90
24814;DHT22;12904;50.088;11.414;2023-08-17T08:09:38;24.00;99.90
24814;DHT22;12904;50.088;11.414;2023-08-17T08:12:04;24.10;99.90
24814;DHT22;12904;50.088;11.414;2023-08-17T08:14:30;24.20;99.90
24814;DHT22;12904;50.088;11.414;2023-08-17T08:16:56;24.30;99.90
24814;DHT22;12904;50.088;11.414;2023-08-17T08:19:21;24.20;99.90
24814;DHT22;12904;50.088;11.414;2023-08-17T08:21:47;24.30;99.90
24814;DHT22;12904;50.088;11.414;2023-08-17T08:24:13;24.30;99.90
24814;DHT22;12904;50.088;11.414;2023-08-17T08:26:38;24.40;99.90
24814;DHT22;12904;50.088;11.414;2023-08-17T08:29:04;24.60;99.90
24814;DHT22;12904;50.088;11.414;2023-08-17T08:31:30;24.70;99.90
24814;DHT22;12904;50.088;11.414;2023-08-17T08:33:55;24.70;99.90
24814;DHT22;12904;50.088;11.414;2023-08-17T08:36:21;24.70;99.90
24814;DHT22;12904;50.088;11.414;2023-08-17T08:38:47;24.80;99.90
24814;DHT22;12904;50.088;11.414;2023-08-17T08:41:12;24.90;99.90
24814;DHT22;12904;50.088;11.414;2023-08-17T08:43:41;25.00;99.90
24814;DHT22;12904;50.088;11.414;2023-08-17T08:46:06;25.10;99.90
24814;DHT22;12904;50.088;11.414;2023-08-17T08:48:32;25.20;99.90
24814;DHT22;12904;50.088;11.414;2023-08-17T08:51:00;25.30;99.90
24814;DHT22;12904;50.088;11.414;2023-08-17T08:53:37;25.30;99.90
24814;DHT22;12904;50.088;11.414;2023-08-17T08:56:03;25.40;99.90
24814;DHT22;12904;50.088;11.414;2023-08-17T08:58:29;25.40;99.90
24814;DHT22;12904;50.088;11.414;2023-08-17T09:00:57;25.60;99.90
24814;DHT22;12904;50.088;11.414;2023-08-17T09:03:25;25.70;99.90
24814;DHT22;12904;50.088;11.414;2023-08-17T09:05:51;25.70;99.90
24814;DHT22;12904;50.088;11.414;2023-08-17T09:08:21;25.80;99.90
24814;DHT22;12904;50.088;11.414;2023-08-17T09:10:48;26.00;99.90
24814;DHT22;12904;50.088;11.414;2023-08-17T09:13:14;26.20;99.90
24814;DHT22;12904;50.088;11.414;2023-08-17T09:15:39;26.30;99.90
24814;DHT22;12904;50.088;11.414;2023-08-17T09:18:06;26.40;99.90
24814;DHT22;12904;50.088;11.414;2023-08-17T09:23:03;26.80;99.90
24814;DHT22;12904;50.088;11.414;2023-08-17T09:25:31;27.00;99.90
24814;DHT22;12904;50.088;11.414;2023-08-17T09:27:57;27.20;99.90
24814;DHT22;12904;50.088;11.414;2023-08-17T09:30:23;27.30;99.90
24814;DHT22;12904;50.088;11.414;2023-08-17T09:32:48;27.40;99.90
24814;DHT22;12904;50.088;11.414;2023-08-17T09:35:15;27.60;99.90
24814;DHT22;12904;50.088;11.414;2023-08-17T09:37:40;27.60;99.90
24814;DHT22;12904;50.088;11.414;2023-08-17T09:40:07;27.70;99.90
24814;DHT22;12904;50.088;11.414;2023-08-17T09:42:36;27.70;99.90
24814;DHT22;12904;50.088;11.414;2023-08-17T09:45:04;27.70;99.90
24814;DHT22;12904;50.088;11.414;2023-08-17T09:47:29;27.80;99.90
24814;DHT22;12904;50.088;11.414;2023-08-17T09:49:55;27.90;99.90
24814;DHT22;12904;50.088;11.414;2023-08-17T09:52:22;28.00;99.90
24814;DHT22;12904;50.088;11.414;2023-08-17T09:54:47;28.00;99.90
24814;DHT22;12904;50.088;11.414;2023-08-17T09:57:14;28.00;99.90
24814;DHT22;12904;50.088;11.414;2023-08-17T09:59:40;28.10;99.90
24814;DHT22;12904;50.088;11.414;2023-08-17T10:02:24;28.10;99.90
24814;DHT22;12904;50.088;11.414;2023-08-17T10:04:52;28.20;99.90
24814;DHT22;12904;50.088;11.414;2023-08-17T10:07:30;28.30;99.90
24814;DHT22;12904;50.088;11.414;2023-08-17T10:10:02;28.30;99.90
24814;DHT22;12904;50.088;11.414;2023-08-17T10:12:28;28.30;99.90
24814;DHT22;12904;50.088;11.414;2023-08-17T10:15:04;28.30;99.90
24814;DHT22;12904;50.088;11.414;2023-08-17T10:17:39;28.40;99.90
24814;DHT22;12904;50.088;11.414;2023-08-17T10:20:09;28.40;99.90
24814;DHT22;12904;50.088;11.414;2023-08-17T10:25:11;28.60;99.90
24814;DHT22;12904;50.088;11.414;2023-08-17T10:27:40;28.60;99.90
24814;DHT22;12904;50.088;11.414;2023-08-17T10:30:10;28.70;99.90
24814;DHT22;12904;50.088;11.414;2023-08-17T10:32:36;28.70;99.90
24814;DHT22;12904;50.088;11.414;2023-08-17T10:35:02;28.80;99.90
24814;DHT22;12904;50.088;11.414;2023-08-17T10:37:28;28.90;99.90
24814;DHT22;12904;50.088;11.414;2023-08-17T10:39:54;28.90;99.90
24814;DHT22;12904;50.088;11.414;2023-08-17T10:42:36;29.00;99.90
24814;DHT22;12904;50.088;11.414;2023-08-17T10:45:26;29.10;99.90
24814;DHT22;12904;50.088;11.414;2023-08-17T10:48:00;29.00;99.90
24814;DHT22;12904;50.088;11.414;2023-08-17T10:50:26;29.10;99.90
24814;DHT22;12904;50.088;11.414;2023-08-17T10:52:53;29.20;99.90
24814;DHT22;12904;50.088;11.414;2023-08-17T10:55:36;29.20;99.90
24814;DHT22;12904;50.088;11.414;2023-08-17T10:58:01;29.20;99.90
24814;DHT22;12904;50.088;11.414;2023-08-17T11:00:33;29.20;99.90
24814;DHT22;12904;50.088;11.414;2023-08-17T11:03:04;29.30;99.90
24814;DHT22;12904;50.088;11.414;2023-08-17T11:08:51;29.40;99.90
24814;DHT22;12904;50.088;11.414;2023-08-17T11:11:19;29.40;99.90
24814;DHT22;12904;50.088;11.414;2023-08-17T11:13:45;29.50;99.90
24814;DHT22;12904;50.088;11.414;2023-08-17T11:16:13;29.50;99.90
24814;DHT22;12904;50.088;11.414;2023-08-17T11:18:39;29.50;99.90
24814;DHT22;12904;50.088;11.414;2023-08-17T11:21:07;29.40;99.90
24814;DHT22;12904;50.088;11.414;2023-08-17T11:23:35;29.40;99.90
24814;DHT22;12904;50.088;11.414;2023-08-17T11:26:01;29.40;99.90
24814;DHT22;12904;50.088;11.414;2023-08-17T11:28:30;29.50;99.90
24814;DHT22;12904;50.088;11.414;2023-08-17T11:31:08;29.60;99.90
24814;DHT22;12904;50.088;11.414;2023-08-17T11:33:35;29.60;99.90
24814;DHT22;12904;50.088;11.414;2023-08-17T11:36:03;29.60;99.90
24814;DHT22;12904;50.088;11.414;2023-08-17T11:38:35;29.70;99.90
24814;DHT22;12904;50.088;11.414;2023-08-17T11:41:02;29.70;99.90
24814;DHT22;12904;50.088;11.414;2023-08-17T11:43:33;29.90;99.90
24814;DHT22;12904;50.088;11.414;2023-08-17T11:46:00;29.90;99.90
24814;DHT22;12904;50.088;11.414;2023-08-17T11:48:26;30.00;99.90
24814;DHT22;12904;50.088;11.414;2023-08-17T11:50:52;30.10;99.90
24814;DHT22;12904;50.088;11.414;2023-08-17T11:53:18;30.20;99.90
24814;DHT22;12904;50.088;11.414;2023-08-17T11:55:44;30.30;99.90
24814;DHT22;12904;50.088;11.414;2023-08-17T11:58:10;30.30;99.90
24814;DHT22;12904;50.088;11.414;2023-08-17T12:00:36;30.30;99.90
24814;DHT22;12904;50.088;11.414;2023-08-17T12:03:04;30.30;99.90
24814;DHT22;12904;50.088;11.414;2023-08-17T12:05:31;30.40;99.90
24814;DHT22;12904;50.088;11.414;2023-08-17T12:07:59;30.60;99.90
24814;DHT22;12904;50.088;11.414;2023-08-17T12:10:28;30.70;99.90
24814;DHT22;12904;50.088;11.414;2023-08-17T12:12:56;30.90;99.90
24814;DHT22;12904;50.088;11.414;2023-08-17T12:15:22;30.90;99.90
24814;DHT22;12904;50.088;11.414;2023-08-17T12:17:49;31.10;99.90
24814;DHT22;12904;50.088;11.414;2023-08-17T12:20:19;30.90;99.90
24814;DHT22;12904;50.088;11.414;2023-08-17T12:22:45;30.50;99.90
24814;DHT22;12904;50.088;11.414;2023-08-17T12:25:11;30.10;99.90
24814;DHT22;12904;50.088;11.414;2023-08-17T12:27:37;29.70;99.90
24814;DHT22;12904;50.088;11.414;2023-08-17T12:30:03;29.40;99.90
24814;DHT22;12904;50.088;11.414;2023-08-17T12:32:28;29.20;99.90
24814;DHT22;12904;50.088;11.414;2023-08-17T12:34:54;29.30;99.90
24814;DHT22;12904;50.088;11.414;2023-08-17T12:37:20;29.50;99.90
24814;DHT22;12904;50.088;11.414;2023-08-17T12:39:47;29.90;99.90
24814;DHT22;12904;50.088;11.414;2023-08-17T12:42:14;30.20;99.90
24814;DHT22;12904;50.088;11.414;2023-08-17T12:44:40;30.30;99.90
24814;DHT22;12904;50.088;11.414;2023-08-17T12:47:06;30.50;99.90
24814;DHT22;12904;50.088;11.414;2023-08-17T12:49:31;30.70;99.90
24814;DHT22;12904;50.088;11.414;2023-08-17T12:51:57;30.70;99.90
24814;DHT22;12904;50.088;11.414;2023-08-17T12:54:23;30.50;99.90
24814;DHT22;12904;50.088;11.414;2023-08-17T12:56:48;30.30;99.90
24814;DHT22;12904;50.088;11.414;2023-08-17T12:59:14;30.00;99.90
24814;DHT22;12904;50.088;11.414;2023-08-17T13:01:39;29.80;99.90
24814;DHT22;12904;50.088;11.414;2023-08-17T13:04:05;29.70;99.90
24814;DHT22;12904;50.088;11.414;2023-08-17T13:06:31;29.80;99.90
24814;DHT22;12904;50.088;11.414;2023-08-17T13:08:57;30.00;99.90
24814;DHT22;12904;50.088;11.414;2023-08-17T13:11:23;30.10;99.90
24814;DHT22;12904;50.088;11.414;2023-08-17T13:13:48;29.90;99.90
24814;DHT22;12904;50.088;11.414;2023-08-17T13:16:14;29.80;99.90
24814;DHT22;12904;50.088;11.414;2023-08-17T13:18:39;29.80;99.90
24814;DHT22;12904;50.088;11.414;2023-08-17T13:21:05;29.80;99.90
24814;DHT22;12904;50.088;11.414;2023-08-17T13:23:31;30.00;99.90
24814;DHT22;12904;50.088;11.414;2023-08-17T13:25:56;30.10;99.90
24814;DHT22;12904;50.088;11.414;2023-08-17T13:28:22;30.30;99.90
24814;DHT22;12904;50.088;11.414;2023-08-17T13:30:48;30.40;99.90
24814;DHT22;12904;50.088;11.414;2023-08-17T13:33:14;30.50;99.90
24814;DHT22;12904;50.088;11.414;2023-08-17T13:35:41;30.60;99.90
24814;DHT22;12904;50.088;11.414;2023-08-17T13:38:07;30.60;99.90
24814;DHT22;12904;50.088;11.414;2023-08-17T13:40:33;30.60;99.90
24814;DHT22;12904;50.088;11.414;2023-08-17T13:42:59;30.60;99.90
24814;DHT22;12904;50.088;11.414;2023-08-17T13:45:26;30.50;99.90
24814;DHT22;12904;50.088;11.414;2023-08-17T13:47:51;30.30;99.90
24814;DHT22;12904;50.088;11.414;2023-08-17T13:50:17;30.10;99.90
24814;DHT22;12904;50.088;11.414;2023-08-17T13:52:44;29.80;99.90
24814;DHT22;12904;50.088;11.414;2023-08-17T13:55:10;29.70;99.90
24814;DHT22;12904;50.088;11.414;2023-08-17T13:57:35;29.50;99.90
24814;DHT22;12904;50.088;11.414;2023-08-17T14:00:01;29.40;99.90
24814;DHT22;12904;50.088;11.414;2023-08-17T14:02:27;29.30;99.90
24814;DHT22;12904;50.088;11.414;2023-08-17T14:04:53;29.20;99.90
24814;DHT22;12904;50.088;11.414;2023-08-17T14:07:18;29.00;99.90
24814;DHT22;12904;50.088;11.414;2023-08-17T14:09:44;28.90;99.90
24814;DHT22;12904;50.088;11.414;2023-08-17T14:12:09;28.80;99.90
24814;DHT22;12904;50.088;11.414;2023-08-17T14:14:35;28.70;99.90
24814;DHT22;12904;50.088;11.414;2023-08-17T14:17:01;28.60;99.90
24814;DHT22;12904;50.088;11.414;2023-08-17T14:19:28;28.70;99.90
24814;DHT22;12904;50.088;11.414;2023-08-17T14:21:53;28.70;99.90
24814;DHT22;12904;50.088;11.414;2023-08-17T14:24:19;28.80;99.90
24814;DHT22;12904;50.088;11.414;2023-08-17T14:26:45;28.90;99.90
24814;DHT22;12904;50.088;11.414;2023-08-17T14:29:10;29.00;99.90
24814;DHT22;12904;50.088;11.414;2023-08-17T14:31:36;29.20;99.90
24814;DHT22;12904;50.088;11.414;2023-08-17T14:34:01;29.30;99.90
24814;DHT22;12904;50.088;11.414;2023-08-17T14:36:27;29.40;99.90
24814;DHT22;12904;50.088;11.414;2023-08-17T14:38:53;29.50;99.90
24814;DHT22;12904;50.088;11.414;2023-08-17T14:41:18;29.50;99.90
24814;DHT22;12904;50.088;11.414;2023-08-17T14:43:44;29.40;99.90
24814;DHT22;12904;50.088;11.414;2023-08-17T14:46:09;29.30;99.90
24814;DHT22;12904;50.088;11.414;2023-08-17T14:48:35;29.20;99.90
24814;DHT22;12904;50.088;11.414;2023-08-17T14:51:01;29.10;99.90
24814;DHT22;12904;50.088;11.414;2023-08-17T14:53:27;29.00;99.90
24814;DHT22;12904;50.088;11.414;2023-08-17T14:55:53;29.00;99.90
24814;DHT22;12904;50.088;11.414;2023-08-17T14:58:18;29.00;99.90
24814;DHT22;12904;50.088;11.414;2023-08-17T15:00:44;28.90;99.90
24814;DHT22;12904;50.088;11.414;2023-08-17T15:03:10;28.90;99.90
24814;DHT22;12904;50.088;11.414;2023-08-17T15:05:35;28.90;99.90
24814;DHT22;12904;50.088;11.414;2023-08-17T15:08:03;28.90;99.90
24814;DHT22;12904;50.088;11.414;2023-08-17T15:10:29;28.80;99.90
24814;DHT22;12904;50.088;11.414;2023-08-17T15:12:55;28.70;99.90
24814;DHT22;12904;50.088;11.414;2023-08-17T15:15:21;28.60;99.90
24814;DHT22;12904;50.088;11.414;2023-08-17T15:17:46;28.50;99.90
24814;DHT22;12904;50.088;11.414;2023-08-17T15:20:12;28.40;99.90